createdAt,value
2023-04-15T00:01:05.772Z,67
2023-04-15T00:02:36.122Z,67
2023-04-15T00:04:06.396Z,67
2023-04-15T00:06:08.689Z,67
2023-04-15T00:07:39.112Z,67
2023-04-15T00:09:09.371Z,67
2023-04-15T00:10:39.716Z,67
2023-04-15T00:12:10.043Z,67
2023-04-15T00:13:40.456Z,67
2023-04-15T00:15:42.863Z,67
2023-04-15T00:17:13.303Z,67
2023-04-15T00:18:43.733Z,67
2023-04-15T00:20:45.986Z,68
2023-04-15T00:22:48.422Z,68
2023-04-15T00:24:18.889Z,67
2023-04-15T00:25:49.104Z,67
2023-04-15T00:27:19.483Z,67
2023-04-15T00:28:49.957Z,67
2023-04-15T00:30:52.391Z,67
2023-04-15T00:32:22.822Z,67
2023-04-15T00:33:53.148Z,68
2023-04-15T00:35:55.583Z,68
2023-04-15T00:37:25.799Z,67
2023-04-15T00:38:56.168Z,67
2023-04-15T00:40:26.540Z,67
2023-04-15T00:41:56.762Z,68
2023-04-15T00:43:27.207Z,67
2023-04-15T00:45:29.677Z,68
2023-04-15T00:46:59.872Z,67
2023-04-15T00:48:30.157Z,68
2023-04-15T00:50:00.601Z,67
2023-04-15T00:51:30.803Z,68
2023-04-15T00:53:01.233Z,68
2023-04-15T00:54:31.662Z,68
2023-04-15T00:56:02.124Z,67
2023-04-15T00:57:32.482Z,68
2023-04-15T00:59:02.757Z,68
2023-04-15T01:01:05.182Z,68
2023-04-15T01:02:35.616Z,67
2023-04-15T01:04:06.020Z,67
2023-04-15T01:06:08.393Z,68
2023-04-15T01:07:38.786Z,67
2023-04-15T01:09:09.263Z,67
2023-04-15T01:10:39.643Z,68
2023-04-15T01:12:10.051Z,68
2023-04-15T01:13:40.323Z,68
2023-04-15T01:15:10.690Z,68
2023-04-15T01:16:40.928Z,68
2023-04-15T01:18:11.188Z,68
2023-04-15T01:19:41.680Z,68
2023-04-15T01:21:44.099Z,68
2023-04-15T01:23:14.514Z,68
2023-04-15T01:24:44.872Z,68
2023-04-15T01:26:15.241Z,68
2023-04-15T01:27:45.674Z,68
2023-04-15T01:29:16.025Z,68
2023-04-15T01:30:46.427Z,68
2023-04-15T01:32:16.854Z,68
2023-04-15T01:33:47.321Z,68
2023-04-15T01:35:17.653Z,68
2023-04-15T01:36:48.096Z,68
2023-04-15T01:38:18.521Z,68
2023-04-15T01:39:48.991Z,68
2023-04-15T01:41:19.343Z,68
2023-04-15T01:42:49.698Z,68
2023-04-15T01:44:20.140Z,68
2023-04-15T01:46:22.589Z,68
2023-04-15T01:47:53.016Z,68
2023-04-15T01:49:23.255Z,68
2023-04-15T01:50:53.608Z,68
2023-04-15T01:52:24.048Z,68
2023-04-15T01:53:54.457Z,68
2023-04-15T01:55:24.841Z,68
2023-04-15T01:57:27.237Z,68
2023-04-15T01:58:57.751Z,68
2023-04-15T02:00:28.171Z,68
2023-04-15T02:01:58.518Z,68
2023-04-15T02:03:29.007Z,68
2023-04-15T02:04:59.376Z,68
2023-04-15T02:06:29.910Z,68
2023-04-15T02:08:32.331Z,68
2023-04-15T02:10:02.805Z,68
2023-04-15T02:12:05.210Z,68
2023-04-15T02:13:35.660Z,68
2023-04-15T02:15:06.097Z,68
2023-04-15T02:17:08.532Z,68
2023-04-15T02:18:38.868Z,68
2023-04-15T02:20:09.198Z,67
2023-04-15T02:21:39.609Z,67
2023-04-15T02:23:10.007Z,67
2023-04-15T02:24:40.429Z,67
2023-04-15T02:26:10.896Z,67
2023-04-15T02:28:13.327Z,67
2023-04-15T02:29:43.738Z,66
2023-04-15T02:31:14.133Z,67
2023-04-15T02:32:44.364Z,67
2023-04-15T02:34:14.730Z,67
2023-04-15T02:35:45.152Z,67
2023-04-15T02:37:47.600Z,67
2023-04-15T02:39:18.014Z,67
2023-04-15T02:40:48.453Z,67
2023-04-15T02:42:18.849Z,67
2023-04-15T02:43:49.250Z,67
2023-04-15T02:45:19.600Z,67
2023-04-15T02:46:49.979Z,67
2023-04-15T02:48:20.322Z,67
2023-04-15T02:49:50.779Z,67
2023-04-15T02:51:21.181Z,67
2023-04-15T02:52:51.666Z,67
2023-04-15T02:54:22.085Z,67
2023-04-15T02:55:52.541Z,67
2023-04-15T02:57:22.918Z,67
2023-04-15T02:58:53.346Z,67
2023-04-15T03:00:23.869Z,67
2023-04-15T03:01:54.413Z,67
2023-04-15T03:03:24.736Z,67
2023-04-15T03:04:55.138Z,67
2023-04-15T03:06:25.588Z,67
2023-04-15T03:08:28.015Z,67
2023-04-15T03:10:03.413Z,67
2023-04-15T03:11:35.439Z,67
2023-04-15T03:13:36.252Z,67
2023-04-15T03:15:06.680Z,67
2023-04-15T03:16:37.091Z,67
2023-04-15T03:18:07.521Z,67
2023-04-15T03:19:37.915Z,67
2023-04-15T03:21:08.290Z,67
2023-04-15T03:23:10.705Z,67
2023-04-15T03:24:41.118Z,67
2023-04-15T03:26:11.475Z,67
2023-04-15T03:27:41.881Z,67
2023-04-15T03:29:12.186Z,67
2023-04-15T03:30:42.658Z,67
2023-04-15T03:32:13.029Z,67
2023-04-15T03:33:43.436Z,67
2023-04-15T03:35:13.857Z,67
2023-04-15T03:36:44.223Z,67
2023-04-15T03:38:14.577Z,67
2023-04-15T03:39:44.914Z,67
2023-04-15T03:41:15.372Z,67
2023-04-15T03:42:45.757Z,67
2023-04-15T03:44:16.159Z,67
2023-04-15T03:45:46.543Z,67
2023-04-15T03:47:49.011Z,67
2023-04-15T03:49:19.382Z,67
2023-04-15T03:50:49.738Z,67
2023-04-15T03:52:52.218Z,67
2023-04-15T03:54:22.588Z,67
2023-04-15T03:55:53.036Z,67
2023-04-15T03:57:23.421Z,67
2023-04-15T03:58:53.843Z,67
2023-04-15T04:00:24.207Z,67
2023-04-15T04:02:26.924Z,67
2023-04-15T04:03:57.134Z,67
2023-04-15T04:05:27.630Z,67
2023-04-15T04:07:30.069Z,67
2023-04-15T04:09:00.773Z,67
2023-04-15T04:10:30.852Z,67
2023-04-15T04:12:01.178Z,67
2023-04-15T04:13:31.634Z,67
2023-04-15T04:15:02.075Z,67
2023-04-15T04:16:32.544Z,67
2023-04-15T04:18:34.931Z,67
2023-04-15T04:20:05.375Z,66
2023-04-15T04:21:35.797Z,67
2023-04-15T04:23:06.179Z,67
2023-04-15T04:24:36.630Z,66
2023-04-15T04:26:07.064Z,67
2023-04-15T04:27:37.458Z,67
2023-04-15T04:29:07.856Z,67
2023-04-15T04:30:38.209Z,67
2023-04-15T04:32:08.687Z,67
2023-04-15T04:33:39.026Z,67
2023-04-15T04:35:09.565Z,67
2023-04-15T04:36:39.837Z,67
2023-04-15T04:38:10.175Z,67
2023-04-15T04:39:40.640Z,67
2023-04-15T04:41:11.078Z,67
2023-04-15T04:42:41.434Z,67
2023-04-15T04:44:11.847Z,67
2023-04-15T04:45:42.344Z,67
2023-04-15T04:47:12.694Z,67
2023-04-15T04:48:43.644Z,67
2023-04-15T04:50:13.521Z,67
2023-04-15T04:51:43.885Z,67
2023-04-15T04:53:14.283Z,67
2023-04-15T04:54:44.709Z,67
2023-04-15T04:56:15.139Z,67
2023-04-15T04:57:45.535Z,67
2023-04-15T04:59:16.533Z,67
2023-04-15T05:00:46.434Z,67
2023-04-15T05:02:16.902Z,67
2023-04-15T05:03:47.291Z,67
2023-04-15T05:05:17.638Z,67
2023-04-15T05:06:48.118Z,67
2023-04-15T05:08:50.515Z,67
2023-04-15T05:10:20.868Z,66
2023-04-15T05:11:51.206Z,67
2023-04-15T05:13:21.568Z,67
2023-04-15T05:14:51.908Z,67
2023-04-15T05:16:22.432Z,67
2023-04-15T05:18:24.639Z,67
2023-04-15T05:19:54.995Z,67
2023-04-15T05:21:25.489Z,67
2023-04-15T05:22:55.836Z,67
2023-04-15T05:24:26.270Z,67
2023-04-15T05:25:56.714Z,67
2023-04-15T05:27:27.140Z,67
2023-04-15T05:29:29.550Z,67
2023-04-15T05:31:00.005Z,67
2023-04-15T05:32:30.327Z,67
2023-04-15T05:34:00.726Z,67
2023-04-15T05:35:31.130Z,67
2023-04-15T05:37:01.494Z,67
2023-04-15T05:38:31.888Z,67
2023-04-15T05:40:02.302Z,67
2023-04-15T05:41:32.690Z,67
2023-04-15T05:43:35.095Z,67
2023-04-15T05:45:05.511Z,67
2023-04-15T05:46:36.031Z,67
2023-04-15T05:48:38.388Z,67
2023-04-15T05:50:08.799Z,67
2023-04-15T05:51:39.184Z,67
2023-04-15T05:53:41.586Z,67
2023-04-15T05:55:12.043Z,67
2023-04-15T05:56:42.549Z,67
2023-04-15T05:58:12.979Z,67
2023-04-15T05:59:43.381Z,67
2023-04-15T06:01:13.972Z,67
2023-04-15T06:02:44.472Z,67
2023-04-15T06:04:14.779Z,67
2023-04-15T06:05:45.159Z,67
2023-04-15T06:07:15.531Z,67
2023-04-15T06:09:17.948Z,67
2023-04-15T06:10:48.319Z,67
2023-04-15T06:12:50.766Z,67
2023-04-15T06:14:21.157Z,67
2023-04-15T06:15:51.624Z,67
2023-04-15T06:17:54.125Z,67
2023-04-15T06:19:24.489Z,67
2023-04-15T06:20:54.969Z,67
2023-04-15T06:22:25.328Z,67
2023-04-15T06:23:55.723Z,67
2023-04-15T06:25:26.164Z,67
2023-04-15T06:26:56.632Z,67
2023-04-15T06:28:27.008Z,67
2023-04-15T06:29:57.428Z,67
2023-04-15T06:31:27.879Z,67
2023-04-15T06:32:58.265Z,67
2023-04-15T06:34:28.652Z,67
2023-04-15T06:35:59.018Z,67
2023-04-15T06:37:29.409Z,67
2023-04-15T06:38:59.983Z,67
2023-04-15T06:40:30.148Z,67
2023-04-15T06:42:00.500Z,67
2023-04-15T06:44:02.952Z,67
2023-04-15T06:45:33.394Z,67
2023-04-15T06:47:03.802Z,67
2023-04-15T06:49:06.243Z,67
2023-04-15T06:50:36.727Z,67
2023-04-15T06:52:07.057Z,67
2023-04-15T06:53:37.373Z,67
2023-04-15T06:55:07.812Z,67
2023-04-15T06:56:38.151Z,67
2023-04-15T06:58:08.545Z,67
2023-04-15T06:59:38.992Z,67
2023-04-15T07:01:09.467Z,67
2023-04-15T07:02:39.896Z,67
2023-04-15T07:04:10.250Z,67
2023-04-15T07:05:40.696Z,67
2023-04-15T07:07:43.116Z,67
2023-04-15T07:09:13.527Z,67
2023-04-15T07:10:43.854Z,67
2023-04-15T07:12:14.276Z,67
2023-04-15T07:13:44.690Z,67
2023-04-15T07:15:15.158Z,67
2023-04-15T07:16:45.593Z,67
2023-04-15T07:18:48.006Z,67
2023-04-15T07:20:18.410Z,67
2023-04-15T07:21:48.892Z,67
2023-04-15T07:23:19.537Z,67
2023-04-15T07:24:49.880Z,67
2023-04-15T07:26:20.234Z,67
2023-04-15T07:27:50.629Z,67
2023-04-15T07:29:21.031Z,67
2023-04-15T07:30:51.498Z,67
2023-04-15T07:32:21.871Z,67
2023-04-15T07:34:24.254Z,67
2023-04-15T07:35:54.667Z,67
2023-04-15T07:37:25.020Z,67
2023-04-15T07:39:27.637Z,67
2023-04-15T07:40:57.975Z,67
2023-04-15T07:42:28.442Z,67
2023-04-15T07:44:30.880Z,67
2023-04-15T07:46:01.374Z,67
2023-04-15T07:47:31.755Z,67
2023-04-15T07:49:02.385Z,67
2023-04-15T07:50:32.576Z,67
2023-04-15T07:52:03.109Z,67
2023-04-15T07:53:33.374Z,67
2023-04-15T07:55:03.850Z,67
2023-04-15T07:57:06.258Z,67
2023-04-15T07:58:36.700Z,67
2023-04-15T08:00:07.112Z,67
2023-04-15T08:01:37.639Z,67
2023-04-15T08:03:40.113Z,67
2023-04-15T08:05:10.467Z,67
2023-04-15T08:06:40.919Z,67
2023-04-15T08:08:43.308Z,67
2023-04-15T08:10:13.761Z,67
2023-04-15T08:11:44.191Z,67
2023-04-15T08:13:14.569Z,67
2023-04-15T08:14:45.005Z,67
2023-04-15T08:16:15.352Z,67
2023-04-15T08:18:17.833Z,67
2023-04-15T08:19:48.203Z,67
2023-04-15T08:21:18.648Z,67
2023-04-15T08:22:49.041Z,67
2023-04-15T08:24:19.465Z,67
2023-04-15T08:25:49.880Z,66
2023-04-15T08:27:20.219Z,66
2023-04-15T08:28:50.617Z,65
2023-04-15T08:30:21.113Z,66
2023-04-15T08:31:51.420Z,65
2023-04-15T08:33:21.783Z,65
2023-04-15T08:34:52.205Z,64
2023-04-15T08:36:22.659Z,64
2023-04-15T08:38:25.089Z,63
2023-04-15T08:39:55.490Z,63
2023-04-15T08:41:25.906Z,62
2023-04-15T08:42:56.244Z,62
2023-04-15T08:44:26.652Z,62
2023-04-15T08:45:57.058Z,62
2023-04-15T08:47:27.463Z,61
2023-04-15T08:48:57.992Z,61
2023-04-15T08:50:28.343Z,61
2023-04-15T08:51:58.795Z,61
2023-04-15T08:53:29.299Z,61
2023-04-15T08:54:59.696Z,60
2023-04-15T08:56:30.076Z,60
2023-04-15T08:58:32.474Z,60
2023-04-15T09:00:03.890Z,60
2023-04-15T09:01:33.414Z,60
2023-04-15T09:03:35.847Z,59
2023-04-15T09:05:06.262Z,59
2023-04-15T09:06:36.698Z,59
2023-04-15T09:08:07.074Z,59
2023-04-15T09:09:37.482Z,60
2023-04-15T09:11:07.804Z,60
2023-04-15T09:12:38.258Z,60
2023-04-15T09:14:08.652Z,60
2023-04-15T09:15:39.045Z,59
2023-04-15T09:17:09.406Z,59
2023-04-15T09:19:11.841Z,55
2023-04-15T09:20:42.303Z,55
2023-04-15T09:22:12.702Z,53
2023-04-15T09:23:43.105Z,52
2023-04-15T09:25:13.526Z,49
2023-04-15T09:26:43.927Z,50
2023-04-15T09:28:14.384Z,50
2023-04-15T09:30:16.896Z,51
2023-04-15T09:31:47.240Z,51
2023-04-15T09:33:17.703Z,51
2023-04-15T09:35:20.119Z,51
2023-04-15T09:36:51.200Z,51
2023-04-15T09:38:20.905Z,52
2023-04-15T09:40:23.337Z,52
2023-04-15T09:41:53.647Z,52
2023-04-15T09:43:24.010Z,52
2023-04-15T09:44:54.407Z,53
2023-04-15T09:46:24.839Z,53
2023-04-15T09:47:56.871Z,53
2023-04-15T09:49:25.731Z,54
2023-04-15T09:50:56.065Z,52
2023-04-15T09:52:26.533Z,52
2023-04-15T09:53:56.890Z,53
2023-04-15T09:55:27.232Z,53
2023-04-15T09:56:57.660Z,53
2023-04-15T09:58:28.112Z,54
2023-04-15T10:00:30.542Z,55
2023-04-15T10:02:00.871Z,55
2023-04-15T10:03:31.375Z,55
2023-04-15T10:05:01.582Z,55
2023-04-15T10:06:31.900Z,55
2023-04-15T10:08:02.309Z,56
2023-04-15T10:10:04.694Z,56
2023-04-15T10:11:35.007Z,56
2023-04-15T10:13:05.474Z,56
2023-04-15T10:15:07.912Z,56
2023-04-15T10:16:38.326Z,56
2023-04-15T10:18:08.794Z,56
2023-04-15T10:19:39.177Z,56
2023-04-15T10:21:09.575Z,56
2023-04-15T10:22:39.998Z,56
2023-04-15T10:24:10.392Z,56
2023-04-15T10:25:40.786Z,56
2023-04-15T10:27:11.166Z,56
2023-04-15T10:28:41.515Z,56
2023-04-15T10:30:11.911Z,56
2023-04-15T10:31:42.360Z,56
2023-04-15T10:33:12.767Z,56
2023-04-15T10:35:15.201Z,56
2023-04-15T10:36:45.512Z,56
2023-04-15T10:38:16.005Z,56
2023-04-15T10:39:46.376Z,56
2023-04-15T10:41:17.928Z,56
2023-04-15T10:42:47.141Z,56
2023-04-15T10:44:17.499Z,56
2023-04-15T10:45:47.840Z,56
2023-04-15T10:47:18.250Z,56
2023-04-15T10:48:48.606Z,56
2023-04-15T10:50:18.985Z,56
2023-04-15T10:51:49.413Z,56
2023-04-15T10:53:21.402Z,56
2023-04-15T10:55:22.301Z,56
2023-04-15T10:56:52.629Z,56
2023-04-15T10:58:23.108Z,56
2023-04-15T10:59:53.453Z,56
2023-04-15T11:01:23.833Z,56
2023-04-15T11:02:54.357Z,56
2023-04-15T11:04:24.625Z,56
2023-04-15T11:06:27.000Z,56
2023-04-15T11:07:57.383Z,56
2023-04-15T11:09:27.765Z,56
2023-04-15T11:10:58.152Z,56
2023-04-15T11:12:28.477Z,56
2023-04-15T11:13:58.917Z,56
2023-04-15T11:16:01.442Z,56
2023-04-15T11:17:31.772Z,56
2023-04-15T11:19:02.128Z,56
2023-04-15T11:21:04.553Z,56
2023-04-15T11:22:34.880Z,55
2023-04-15T11:24:05.536Z,56
2023-04-15T11:26:07.948Z,56
2023-04-15T11:27:38.294Z,55
2023-04-15T11:29:08.658Z,56
2023-04-15T11:30:39.006Z,55
2023-04-15T11:32:09.511Z,55
2023-04-15T11:33:39.699Z,55
2023-04-15T11:35:42.144Z,55
2023-04-15T11:37:12.572Z,55
2023-04-15T11:38:43.033Z,55
2023-04-15T11:40:13.398Z,55
2023-04-15T11:41:43.843Z,55
2023-04-15T11:43:14.177Z,55
2023-04-15T11:45:16.597Z,56
2023-04-15T11:46:47.007Z,55
2023-04-15T11:48:17.364Z,55
2023-04-15T11:49:47.760Z,55
2023-04-15T11:51:18.180Z,55
2023-04-15T11:52:48.588Z,55
2023-04-15T11:54:18.955Z,55
2023-04-15T11:56:21.368Z,55
2023-04-15T11:57:51.831Z,55
2023-04-15T11:59:22.330Z,55
2023-04-15T12:01:24.683Z,55
2023-04-15T12:02:55.118Z,55
2023-04-15T12:04:26.111Z,55
2023-04-15T12:05:55.740Z,55
2023-04-15T12:07:26.080Z,55
2023-04-15T12:08:56.529Z,55
2023-04-15T12:10:58.970Z,55
2023-04-15T12:12:29.364Z,55
2023-04-15T12:13:59.761Z,55
2023-04-15T12:16:02.288Z,55
2023-04-15T12:17:51.225Z,55
2023-04-15T12:19:03.046Z,55
2023-04-15T12:21:05.461Z,55
2023-04-15T12:22:35.886Z,55
2023-04-15T12:24:06.557Z,55
2023-04-15T12:26:08.778Z,55
2023-04-15T12:27:39.186Z,55
2023-04-15T12:29:09.594Z,55
2023-04-15T12:31:12.011Z,55
2023-04-15T12:32:43.496Z,55
2023-04-15T12:34:12.860Z,55
2023-04-15T12:35:43.252Z,55
2023-04-15T12:37:13.654Z,55
2023-04-15T12:38:44.101Z,55
2023-04-15T12:40:14.455Z,55
2023-04-15T12:42:16.882Z,55
2023-04-15T12:43:47.297Z,55
2023-04-15T12:45:17.792Z,55
2023-04-15T12:47:20.211Z,55
2023-04-15T12:48:50.584Z,55
2023-04-15T12:50:20.933Z,56
2023-04-15T12:51:51.348Z,56
2023-04-15T12:53:21.671Z,56
2023-04-15T12:54:52.141Z,56
2023-04-15T12:56:22.500Z,56
2023-04-15T12:57:52.934Z,56
2023-04-15T12:59:23.405Z,56
2023-04-15T13:00:53.771Z,56
2023-04-15T13:02:24.180Z,55
2023-04-15T13:03:54.549Z,56
2023-04-15T13:05:24.871Z,56
2023-04-15T13:07:27.282Z,55
2023-04-15T13:08:58.879Z,55
2023-04-15T13:10:28.196Z,56
2023-04-15T13:11:58.540Z,55
2023-04-15T13:13:28.950Z,55
2023-04-15T13:14:59.336Z,55
2023-04-15T13:17:01.771Z,55
2023-04-15T13:18:32.170Z,55
2023-04-15T13:20:02.548Z,55
2023-04-15T13:22:05.003Z,55
2023-04-15T13:23:35.387Z,55
2023-04-15T13:25:05.735Z,55
2023-04-15T13:26:36.122Z,55
2023-04-15T13:28:06.572Z,55
2023-04-15T13:29:37.001Z,55
2023-04-15T13:31:07.399Z,55
2023-04-15T13:32:37.739Z,55
2023-04-15T13:34:08.101Z,55
2023-04-15T13:35:38.463Z,55
2023-04-15T13:37:08.849Z,55
2023-04-15T13:38:39.253Z,55
2023-04-15T13:40:09.661Z,55
2023-04-15T13:42:12.063Z,55
2023-04-15T13:43:42.409Z,55
2023-04-15T13:45:12.835Z,55
2023-04-15T13:46:43.226Z,55
2023-04-15T13:48:13.681Z,55
2023-04-15T13:49:44.034Z,55
2023-04-15T13:51:14.366Z,55
2023-04-15T13:52:44.796Z,55
2023-04-15T13:54:15.248Z,55
2023-04-15T13:56:17.686Z,55
2023-04-15T13:57:48.108Z,56
2023-04-15T13:59:18.447Z,56
2023-04-15T14:00:48.844Z,56
2023-04-15T14:02:19.356Z,56
2023-04-15T14:03:49.838Z,56
2023-04-15T14:05:20.060Z,56
2023-04-15T14:06:50.523Z,56
2023-04-15T14:08:20.944Z,56
2023-04-15T14:09:51.304Z,56
2023-04-15T14:11:53.716Z,56
2023-04-15T14:13:24.158Z,56
2023-04-15T14:14:54.597Z,56
2023-04-15T14:16:25.044Z,56
2023-04-15T14:17:55.409Z,56
2023-04-15T14:19:25.875Z,56
2023-04-15T14:20:56.277Z,56
2023-04-15T14:22:26.685Z,56
2023-04-15T14:23:57.101Z,56
2023-04-15T14:25:33.572Z,56
2023-04-15T14:27:29.965Z,55
2023-04-15T14:29:00.287Z,54
2023-04-15T14:30:30.732Z,55
2023-04-15T14:32:04.411Z,55
2023-04-15T14:33:31.435Z,55
2023-04-15T14:35:01.817Z,55
2023-04-15T14:36:32.188Z,55
2023-04-15T14:38:02.602Z,55
2023-04-15T14:39:33.019Z,55
2023-04-15T14:41:03.488Z,55
2023-04-15T14:43:05.924Z,56
2023-04-15T14:44:36.356Z,56
2023-04-15T14:46:06.829Z,56
2023-04-15T14:48:09.235Z,56
2023-04-15T14:49:39.660Z,56
2023-04-15T14:51:10.150Z,56
2023-04-15T14:52:40.503Z,56
2023-04-15T14:54:10.914Z,56
2023-04-15T14:55:41.357Z,56
2023-04-15T14:57:11.637Z,56
2023-04-15T14:58:41.977Z,56
2023-04-15T15:00:15.415Z,54
2023-04-15T15:02:17.236Z,56
2023-04-15T15:03:45.211Z,56
2023-04-15T15:05:15.700Z,56
2023-04-15T15:07:18.079Z,57
2023-04-15T15:08:48.384Z,57
2023-04-15T15:10:30.290Z,57
2023-04-15T15:12:21.161Z,57
2023-04-15T15:13:51.486Z,57
2023-04-15T15:15:28.779Z,59
2023-04-15T15:17:24.316Z,58
2023-04-15T15:18:54.686Z,60
2023-04-15T15:20:25.066Z,61
2023-04-15T15:22:27.579Z,60
2023-04-15T15:23:58.023Z,60
2023-04-15T15:25:28.259Z,60
2023-04-15T15:26:58.651Z,61
2023-04-15T15:28:29.044Z,61
2023-04-15T15:29:59.492Z,62
2023-04-15T15:31:29.882Z,62
2023-04-15T15:33:32.270Z,61
2023-04-15T15:35:02.683Z,63
2023-04-15T15:36:33.048Z,62
2023-04-15T15:38:35.555Z,60
2023-04-15T15:40:05.912Z,62
2023-04-15T15:41:36.256Z,64
2023-04-15T15:43:38.672Z,64
2023-04-15T15:45:08.949Z,64
2023-04-15T15:47:11.422Z,65
2023-04-15T15:48:41.782Z,65
2023-04-15T15:50:12.148Z,65
2023-04-15T15:51:42.559Z,65
2023-04-15T15:53:12.965Z,65
2023-04-15T15:54:43.422Z,65
2023-04-15T15:56:13.825Z,66
2023-04-15T15:57:44.196Z,66
2023-04-15T15:59:14.635Z,66
2023-04-15T16:00:45.129Z,63
2023-04-15T16:04:18.064Z,65
2023-04-15T16:05:48.314Z,66
2023-04-15T16:07:50.749Z,60
2023-04-15T16:09:21.150Z,58
2023-04-15T16:10:51.539Z,60
2023-04-15T16:12:53.932Z,59
2023-04-15T16:14:24.258Z,59
2023-04-15T16:15:54.737Z,59
2023-04-15T16:17:57.225Z,60
2023-04-15T16:19:27.600Z,60
2023-04-15T16:20:58.066Z,60
2023-04-15T16:22:28.406Z,63
2023-04-15T16:23:58.860Z,63
2023-04-15T16:26:01.374Z,62
2023-04-15T16:28:11.703Z,65
2023-04-15T16:29:34.185Z,64
2023-04-15T16:31:04.671Z,66
2023-04-15T16:33:07.115Z,66
2023-04-15T16:34:37.525Z,67
2023-04-15T16:36:07.972Z,67
2023-04-15T16:38:10.370Z,66
2023-04-15T16:39:40.720Z,68
2023-04-15T16:41:11.210Z,71
2023-04-15T16:42:41.560Z,70
2023-04-15T16:44:11.972Z,69
2023-04-15T16:45:42.491Z,72
2023-04-15T16:47:12.832Z,66
2023-04-15T16:48:43.352Z,66
2023-04-15T16:50:13.811Z,67
2023-04-15T16:51:44.172Z,63
2023-04-15T16:53:14.622Z,66
2023-04-15T16:54:44.993Z,63
2023-04-15T16:56:15.474Z,65
2023-04-15T16:58:01.364Z,63
2023-04-15T16:59:16.274Z,65
2023-04-15T17:00:46.748Z,58
2023-04-15T17:02:17.217Z,58
2023-04-15T17:03:47.684Z,61
2023-04-15T17:05:17.970Z,64
2023-04-15T17:06:48.433Z,67
2023-04-15T17:08:18.782Z,58
2023-04-15T17:09:49.272Z,62
2023-04-15T17:11:19.861Z,60
2023-04-15T17:12:50.270Z,60
2023-04-15T17:14:20.657Z,64
2023-04-15T17:15:51.939Z,64
2023-04-15T17:17:53.530Z,65
2023-04-15T17:19:23.884Z,63
2023-04-15T17:20:54.348Z,63
2023-04-15T17:22:56.780Z,65
2023-04-15T17:24:27.196Z,64
2023-04-15T17:25:57.723Z,59
2023-04-15T17:27:28.176Z,59
2023-04-15T17:28:58.569Z,61
2023-04-15T17:30:28.975Z,60
2023-04-15T17:31:59.780Z,63
2023-04-15T17:33:50.616Z,61
2023-04-15T17:35:00.668Z,58
2023-04-15T17:37:03.187Z,60
2023-04-15T17:38:33.550Z,62
2023-04-15T17:40:04.814Z,60
2023-04-15T17:41:34.443Z,62
2023-04-15T17:43:04.825Z,62
2023-04-15T17:44:35.219Z,61
2023-04-15T17:46:05.609Z,60
2023-04-15T17:47:35.959Z,61
2023-04-15T17:49:06.610Z,59
2023-04-15T17:50:36.820Z,59
2023-04-15T17:52:07.256Z,60
2023-04-15T17:54:09.664Z,59
2023-04-15T17:55:40.033Z,59
2023-04-15T17:57:10.506Z,59
2023-04-15T17:58:40.976Z,58
2023-04-15T18:00:11.754Z,50
2023-04-15T18:01:42.265Z,55
2023-04-15T18:03:12.704Z,56
2023-04-15T18:04:43.131Z,50
2023-04-15T18:06:13.566Z,49
2023-04-15T18:07:44.092Z,46
2023-04-15T18:09:14.524Z,47
2023-04-15T18:10:44.891Z,52
2023-04-15T18:12:15.358Z,47
2023-04-15T18:13:45.819Z,46
2023-04-15T18:15:16.162Z,47
2023-04-15T18:16:46.519Z,50
2023-04-15T18:18:16.906Z,45
2023-04-15T18:19:47.354Z,47
2023-04-15T18:21:17.753Z,47
2023-04-15T18:22:48.187Z,46
2023-04-15T18:24:18.587Z,46
2023-04-15T18:25:49.006Z,51
2023-04-15T18:27:19.507Z,51
2023-04-15T18:28:49.893Z,53
2023-04-15T18:30:20.294Z,51
2023-04-15T18:31:50.778Z,48
2023-04-15T18:33:53.197Z,51
2023-04-15T18:35:23.635Z,52
2023-04-15T18:36:54.023Z,52
2023-04-15T18:38:24.450Z,52
2023-04-15T18:39:54.840Z,51
2023-04-15T18:41:25.280Z,53
2023-04-15T18:42:55.624Z,53
2023-04-15T18:44:26.054Z,53
2023-04-15T18:45:56.631Z,53
2023-04-15T18:47:27.237Z,54
2023-04-15T18:48:57.381Z,53
2023-04-15T18:50:27.782Z,53
2023-04-15T18:51:58.193Z,44
2023-04-15T18:53:28.665Z,53
2023-04-15T18:55:31.089Z,53
2023-04-15T18:57:01.471Z,53
2023-04-15T18:59:09.049Z,53
2023-04-15T19:00:02.280Z,52
2023-04-15T19:01:32.749Z,54
2023-04-15T19:03:03.192Z,54
2023-04-15T19:04:33.540Z,54
2023-04-15T19:06:03.915Z,54
2023-04-15T19:07:34.308Z,55
2023-04-15T19:09:04.866Z,56
2023-04-15T19:10:35.096Z,54
2023-04-15T19:12:05.544Z,55
2023-04-15T19:14:08.022Z,55
2023-04-15T19:16:10.704Z,56
2023-04-15T19:17:41.108Z,56
2023-04-15T19:19:11.378Z,56
2023-04-15T19:20:41.802Z,57
2023-04-15T19:22:12.296Z,56
2023-04-15T19:23:42.647Z,56
2023-04-15T19:25:13.060Z,56
2023-04-15T19:26:43.526Z,56
2023-04-15T19:28:13.902Z,57
2023-04-15T19:29:44.341Z,57
2023-04-15T19:31:14.797Z,56
2023-04-15T19:32:45.138Z,55
2023-04-15T19:34:47.523Z,53
2023-04-15T19:36:17.832Z,54
2023-04-15T19:37:48.338Z,53
2023-04-15T19:39:18.689Z,52
2023-04-15T19:40:49.276Z,53
2023-04-15T19:42:19.666Z,54
2023-04-15T19:43:50.063Z,54
2023-04-15T19:45:20.465Z,54
2023-04-15T19:46:50.924Z,54
2023-04-15T19:48:21.375Z,55
2023-04-15T19:49:52.704Z,55
2023-04-15T19:51:22.141Z,55
2023-04-15T19:52:52.527Z,55
2023-04-15T19:54:54.938Z,54
2023-04-15T19:56:25.357Z,54
2023-04-15T19:57:55.785Z,53
2023-04-15T19:59:26.196Z,54
2023-04-15T20:00:56.594Z,53
2023-04-15T20:02:27.170Z,53
2023-04-15T20:03:57.706Z,54
2023-04-15T20:05:27.992Z,53
2023-04-15T20:06:58.379Z,53
2023-04-15T20:08:28.852Z,56
2023-04-15T20:09:59.236Z,53
2023-04-15T20:12:05.295Z,54
2023-04-15T20:12:59.854Z,54
2023-04-15T20:14:30.186Z,55
2023-04-15T20:16:00.676Z,54
2023-04-15T20:17:31.104Z,54
2023-04-15T20:19:01.483Z,54
2023-04-15T20:21:03.906Z,56
2023-04-15T20:22:34.355Z,55
2023-04-15T20:24:04.905Z,55
2023-04-15T20:25:35.189Z,57
2023-04-15T20:27:05.616Z,56
2023-04-15T20:28:35.949Z,56
2023-04-15T20:30:06.328Z,56
2023-04-15T20:31:36.794Z,54
2023-04-15T20:33:07.309Z,55
2023-04-15T20:34:37.583Z,53
2023-04-15T20:36:08.027Z,53
2023-04-15T20:37:38.491Z,53
2023-04-15T20:39:08.836Z,52
2023-04-15T20:40:40.572Z,51
2023-04-15T20:42:09.570Z,49
2023-04-15T20:43:39.977Z,51
2023-04-15T20:45:10.333Z,48
2023-04-15T20:46:40.794Z,51
2023-04-15T20:48:11.316Z,50
2023-04-15T20:50:13.693Z,49
2023-04-15T20:52:16.116Z,50
2023-04-15T20:53:46.577Z,51
2023-04-15T20:55:49.004Z,51
2023-04-15T20:57:19.622Z,52
2023-04-15T20:58:50.006Z,51
2023-04-15T21:00:20.369Z,50
2023-04-15T21:01:50.833Z,52
2023-04-15T21:03:21.351Z,53
2023-04-15T21:04:51.640Z,52
2023-04-15T21:06:22.038Z,52
2023-04-15T21:07:52.458Z,52
2023-04-15T21:09:22.948Z,52
2023-04-15T21:10:53.338Z,51
2023-04-15T21:12:23.738Z,52
2023-04-15T21:13:54.064Z,52
2023-04-15T21:15:24.461Z,51
2023-04-15T21:16:54.904Z,53
2023-04-15T21:18:25.329Z,51
2023-04-15T21:19:55.782Z,52
2023-04-15T21:21:58.169Z,52
2023-04-15T21:23:28.637Z,52
2023-04-15T21:25:31.111Z,50
2023-04-15T21:27:01.503Z,49
2023-04-15T21:30:07.522Z,51
2023-04-15T21:32:09.964Z,49
2023-04-15T21:33:40.418Z,50
2023-04-15T21:35:10.818Z,49
2023-04-15T21:37:13.254Z,51
2023-04-15T21:38:43.683Z,51
2023-04-15T21:40:14.119Z,50
2023-04-15T21:41:44.405Z,49
2023-04-15T21:43:14.724Z,50
2023-04-15T21:44:45.124Z,50
2023-04-15T21:46:21.522Z,49
2023-04-15T21:48:00.539Z,50
2023-04-15T21:49:16.454Z,49
2023-04-15T21:50:46.821Z,50
2023-04-15T21:52:17.221Z,50
2023-04-15T21:53:47.669Z,50
2023-04-15T21:55:18.109Z,50
2023-04-15T21:56:48.507Z,49
2023-04-15T21:58:18.910Z,50
2023-04-15T21:59:49.277Z,50
2023-04-15T22:01:51.787Z,48
2023-04-15T22:03:22.173Z,47
2023-04-15T22:04:52.500Z,49
2023-04-15T22:06:22.915Z,50
2023-04-15T22:07:53.275Z,49
2023-04-15T22:09:23.748Z,49
2023-04-15T22:11:26.170Z,48
2023-04-15T22:12:56.576Z,48
2023-04-15T22:14:26.956Z,48
2023-04-15T22:16:29.419Z,48
2023-04-15T22:17:59.800Z,49
2023-04-15T22:19:30.188Z,48
2023-04-15T22:21:00.545Z,49
2023-04-15T22:22:41.463Z,49
2023-04-15T22:24:31.523Z,47
2023-04-15T22:26:03.861Z,49
2023-04-15T22:27:34.254Z,49
2023-04-15T22:29:04.927Z,48
2023-04-15T22:30:34.982Z,46
2023-04-15T22:32:05.315Z,48
2023-04-15T22:33:35.724Z,48
2023-04-15T22:35:06.122Z,48
2023-04-15T22:37:08.584Z,46